JIA6454 KOKC-KORD
Flight info
| Callsign | JIA6454 |
|---|---|
| Flight time | 1h 30m |
| Altitude | 33000 |
| Route | TRUPR3 GTYER WELTS TRTLL6 |
| Aircraft | CRJ9/M-SDFGIRWY/S |
Departure
| Time | 2026-04-26 01:23 |
|---|---|
| Airport | OKC Will Rogers World Airport (KOKC) |
Arrival
| Time | 2026-04-26 02:53 |
|---|---|
| Airport | Chicago O'Hare International Airport (KORD) |
| Time | Latitude | Longitude | Altitude | Speed | Heading |
|---|---|---|---|---|---|
| 2026-04-26 00:23 | 35.39476 | -97.59801 | 1295 ft | 0 kts | 359° |
| 2026-04-26 00:24 | 35.39477 | -97.59801 | 1295 ft | 0 kts | 359° |
| 2026-04-26 00:33 | 35.39478 | -97.59801 | 1295 ft | 0 kts | 359° |
| 2026-04-26 00:43 | 35.39479 | -97.59801 | 1295 ft | 0 kts | 359° |
| 2026-04-26 00:58 | 35.39478 | -97.59801 | 1295 ft | 1 kts | 359° |
| 2026-04-26 00:58 | 35.39454 | -97.59801 | 1294 ft | 3 kts | 359° |
| 2026-04-26 00:59 | 35.39426 | -97.59801 | 1293 ft | 4 kts | 359° |
| 2026-04-26 00:59 | 35.39399 | -97.59800 | 1293 ft | 3 kts | 359° |
| 2026-04-26 00:59 | 35.39389 | -97.59800 | 1292 ft | 1 kts | 359° |
| 2026-04-26 01:08 | 35.39406 | -97.59798 | 1293 ft | 0 kts | 26° |
| 2026-04-26 01:08 | 35.39411 | -97.59795 | 1293 ft | 2 kts | 33° |
| 2026-04-26 01:08 | 35.39414 | -97.59790 | 1293 ft | 0 kts | 65° |
| 2026-04-26 01:09 | 35.39415 | -97.59783 | 1294 ft | 4 kts | 89° |
| 2026-04-26 01:09 | 35.39399 | -97.59698 | 1295 ft | 12 kts | 106° |
| 2026-04-26 01:09 | 35.39385 | -97.59620 | 1297 ft | 7 kts | 95° |
| 2026-04-26 01:09 | 35.39383 | -97.59576 | 1297 ft | 3 kts | 89° |
| 2026-04-26 01:10 | 35.39384 | -97.59558 | 1298 ft | 2 kts | 89° |
| 2026-04-26 01:10 | 35.39384 | -97.59531 | 1298 ft | 4 kts | 89° |
| 2026-04-26 01:10 | 35.39385 | -97.59480 | 1298 ft | 8 kts | 89° |
| 2026-04-26 01:10 | 35.39385 | -97.59389 | 1296 ft | 14 kts | 90° |
| 2026-04-26 01:11 | 35.39397 | -97.59267 | 1294 ft | 12 kts | 59° |
| 2026-04-26 01:11 | 35.39444 | -97.59187 | 1294 ft | 11 kts | 53° |
| 2026-04-26 01:11 | 35.39480 | -97.59124 | 1294 ft | 9 kts | 71° |
| 2026-04-26 01:11 | 35.39518 | -97.59066 | 1293 ft | 9 kts | 15° |
| 2026-04-26 01:12 | 35.39580 | -97.59059 | 1292 ft | 9 kts | 356° |
| 2026-04-26 01:12 | 35.39637 | -97.59062 | 1293 ft | 8 kts | 359° |
| 2026-04-26 01:12 | 35.39687 | -97.59063 | 1294 ft | 6 kts | 359° |
| 2026-04-26 01:12 | 35.39728 | -97.59063 | 1295 ft | 5 kts | 360° |
| 2026-04-26 01:13 | 35.39770 | -97.59063 | 1296 ft | 8 kts | 360° |
| 2026-04-26 01:13 | 35.39829 | -97.59064 | 1295 ft | 10 kts | 360° |
| 2026-04-26 01:13 | 35.39904 | -97.59064 | 1293 ft | 12 kts | 360° |
| 2026-04-26 01:13 | 35.39993 | -97.59064 | 1292 ft | 13 kts | 360° |
| 2026-04-26 01:14 | 35.40085 | -97.59064 | 1294 ft | 13 kts | 360° |
| 2026-04-26 01:14 | 35.40172 | -97.59064 | 1295 ft | 12 kts | 360° |
| 2026-04-26 01:14 | 35.40264 | -97.59064 | 1293 ft | 14 kts | 0° |
| 2026-04-26 01:14 | 35.40340 | -97.59064 | 1292 ft | 10 kts | 0° |
| 2026-04-26 01:15 | 35.40413 | -97.59064 | 1292 ft | 11 kts | 0° |
| 2026-04-26 01:15 | 35.40457 | -97.59064 | 1293 ft | 4 kts | 5° |
| 2026-04-26 01:15 | 35.40481 | -97.59053 | 1293 ft | 3 kts | 33° |
| 2026-04-26 01:15 | 35.40497 | -97.59033 | 1294 ft | 5 kts | 58° |
| 2026-04-26 01:16 | 35.40501 | -97.59019 | 1294 ft | 0 kts | 80° |
| 2026-04-26 01:21 | 35.40503 | -97.58996 | 1295 ft | 6 kts | 88° |
| 2026-04-26 01:22 | 35.40503 | -97.58941 | 1295 ft | 8 kts | 90° |
| 2026-04-26 01:22 | 35.40487 | -97.58902 | 1296 ft | 4 kts | 152° |
| 2026-04-26 01:22 | 35.40461 | -97.58899 | 1296 ft | 6 kts | 179° |
| 2026-04-26 01:22 | 35.40166 | -97.58894 | 1294 ft | 83 kts | 180° |
| 2026-04-26 01:23 | 35.39338 | -97.58891 | 1292 ft | 152 kts | 178° |
| 2026-04-26 01:23 | 35.38123 | -97.58918 | 1533 ft | 188 kts | 179° |
| 2026-04-26 01:23 | 35.36738 | -97.59021 | 2138 ft | 210 kts | 183° |
| 2026-04-26 01:23 | 35.35277 | -97.59131 | 3069 ft | 210 kts | 180° |
| 2026-04-26 01:24 | 35.33832 | -97.58797 | 3892 ft | 219 kts | 153° |
| 2026-04-26 01:24 | 35.32788 | -97.57450 | 4636 ft | 230 kts | 113° |
| 2026-04-26 01:24 | 35.32668 | -97.55511 | 5371 ft | 235 kts | 71° |
| 2026-04-26 01:24 | 35.33568 | -97.53864 | 6154 ft | 231 kts | 31° |
| 2026-04-26 01:25 | 35.35008 | -97.53236 | 6896 ft | 222 kts | 1° |
| 2026-04-26 01:25 | 35.36545 | -97.52923 | 7641 ft | 226 kts | 4° |
| 2026-04-26 01:25 | 35.38101 | -97.52420 | 8275 ft | 238 kts | 11° |
| 2026-04-26 01:25 | 35.39684 | -97.51597 | 8749 ft | 258 kts | 23° |
| 2026-04-26 01:26 | 35.41191 | -97.50261 | 9228 ft | 275 kts | 38° |
| 2026-04-26 01:26 | 35.42440 | -97.48434 | 9862 ft | 284 kts | 53° |
| 2026-04-26 01:26 | 35.43441 | -97.46323 | 10459 ft | 289 kts | 58° |
| 2026-04-26 01:26 | 35.44373 | -97.44121 | 11068 ft | 292 kts | 59° |
| 2026-04-26 01:27 | 35.45322 | -97.41892 | 11593 ft | 302 kts | 59° |
| 2026-04-26 01:27 | 35.46324 | -97.39591 | 12410 ft | 303 kts | 58° |
| 2026-04-26 01:27 | 35.47354 | -97.37335 | 13233 ft | 306 kts | 56° |
| 2026-04-26 01:27 | 35.48411 | -97.35061 | 13903 ft | 308 kts | 56° |
| 2026-04-26 01:28 | 35.49481 | -97.32775 | 14563 ft | 310 kts | 56° |
| 2026-04-26 01:28 | 35.50564 | -97.30470 | 15216 ft | 313 kts | 56° |
| 2026-04-26 01:28 | 35.51636 | -97.28132 | 15867 ft | 315 kts | 57° |
| 2026-04-26 01:28 | 35.52723 | -97.25756 | 16299 ft | 328 kts | 57° |
| 2026-04-26 01:29 | 35.53867 | -97.23253 | 16582 ft | 344 kts | 57° |
| 2026-04-26 01:29 | 35.55053 | -97.20646 | 17020 ft | 354 kts | 57° |
| 2026-04-26 01:29 | 35.56259 | -97.17990 | 17626 ft | 358 kts | 57° |
| 2026-04-26 01:29 | 35.57462 | -97.15335 | 18439 ft | 353 kts | 57° |
| 2026-04-26 01:30 | 35.58663 | -97.12697 | 19018 ft | 355 kts | 57° |
| 2026-04-26 01:30 | 35.59885 | -97.10028 | 19348 ft | 367 kts | 57° |
| 2026-04-26 01:30 | 35.61175 | -97.07238 | 19507 ft | 383 kts | 56° |
| 2026-04-26 01:30 | 35.62505 | -97.04345 | 19844 ft | 393 kts | 57° |
| 2026-04-26 01:31 | 35.63849 | -97.01392 | 20307 ft | 397 kts | 57° |
| 2026-04-26 01:31 | 35.65195 | -96.98423 | 20912 ft | 397 kts | 57° |
| 2026-04-26 01:31 | 35.66537 | -96.95478 | 21667 ft | 393 kts | 57° |
| 2026-04-26 01:31 | 35.67867 | -96.92533 | 22194 ft | 395 kts | 57° |
| 2026-04-26 01:32 | 35.69209 | -96.89570 | 22687 ft | 397 kts | 57° |
| 2026-04-26 01:32 | 35.70548 | -96.86640 | 23180 ft | 400 kts | 56° |
| 2026-04-26 01:32 | 35.71934 | -96.83656 | 23605 ft | 402 kts | 56° |
| 2026-04-26 01:32 | 35.73345 | -96.80669 | 23982 ft | 404 kts | 53° |
| 2026-04-26 01:33 | 35.75065 | -96.77961 | 24358 ft | 401 kts | 42° |
| 2026-04-26 01:33 | 35.77019 | -96.75510 | 24724 ft | 402 kts | 39° |
| 2026-04-26 01:33 | 35.79020 | -96.73098 | 25085 ft | 404 kts | 39° |
| 2026-04-26 01:33 | 35.81013 | -96.70636 | 25452 ft | 408 kts | 40° |
| 2026-04-26 01:34 | 35.82976 | -96.68079 | 25791 ft | 412 kts | 41° |
| 2026-04-26 01:34 | 35.84934 | -96.65493 | 26139 ft | 414 kts | 41° |
| 2026-04-26 01:34 | 35.86907 | -96.62891 | 26475 ft | 417 kts | 41° |
| 2026-04-26 01:34 | 35.88894 | -96.60272 | 26810 ft | 419 kts | 40° |
| 2026-04-26 01:35 | 35.90892 | -96.57643 | 27131 ft | 422 kts | 41° |
| 2026-04-26 01:35 | 35.92847 | -96.54910 | 27449 ft | 426 kts | 44° |
| 2026-04-26 01:35 | 35.94745 | -96.52083 | 27762 ft | 429 kts | 44° |
| 2026-04-26 01:35 | 35.96650 | -96.49231 | 28054 ft | 432 kts | 44° |
| 2026-04-26 01:36 | 35.98576 | -96.46371 | 28352 ft | 434 kts | 43° |
| 2026-04-26 01:36 | 36.00534 | -96.43522 | 28644 ft | 436 kts | 43° |
| 2026-04-26 01:36 | 36.02505 | -96.40667 | 28935 ft | 438 kts | 43° |
| 2026-04-26 01:37 | 36.06474 | -96.34905 | 29485 ft | 442 kts | 43° |
| 2026-04-26 01:37 | 36.08473 | -96.31999 | 29762 ft | 445 kts | 43° |
| 2026-04-26 01:37 | 36.10479 | -96.29080 | 30010 ft | 446 kts | 43° |
| 2026-04-26 01:37 | 36.12491 | -96.26148 | 30237 ft | 448 kts | 43° |
| 2026-04-26 01:38 | 36.14510 | -96.23207 | 30467 ft | 449 kts | 43° |
| 2026-04-26 01:38 | 36.16535 | -96.20255 | 30697 ft | 451 kts | 43° |
| 2026-04-26 01:38 | 36.18562 | -96.17296 | 30934 ft | 452 kts | 42° |
| 2026-04-26 01:38 | 36.20598 | -96.14319 | 31159 ft | 453 kts | 42° |
| 2026-04-26 01:39 | 36.22636 | -96.11339 | 31375 ft | 454 kts | 42° |
| 2026-04-26 01:39 | 36.24668 | -96.08364 | 31824 ft | 448 kts | 42° |
| 2026-04-26 01:39 | 36.26670 | -96.05434 | 32205 ft | 446 kts | 41° |
| 2026-04-26 01:39 | 36.28676 | -96.02499 | 32445 ft | 445 kts | 41° |
| 2026-04-26 01:40 | 36.30672 | -95.99566 | 32650 ft | 446 kts | 41° |
| 2026-04-26 01:40 | 36.34714 | -95.93633 | 32776 ft | 454 kts | 42° |
| 2026-04-26 01:41 | 36.38837 | -95.87562 | 32815 ft | 466 kts | 42° |
| 2026-04-26 01:41 | 36.43071 | -95.81313 | 32809 ft | 479 kts | 43° |
| 2026-04-26 01:42 | 36.47409 | -95.74891 | 32807 ft | 491 kts | 43° |
| 2026-04-26 01:42 | 36.51093 | -95.69431 | 32813 ft | 500 kts | 43° |
| 2026-04-26 01:43 | 36.56299 | -95.61693 | 32810 ft | 501 kts | 43° |
| 2026-04-26 01:43 | 36.60039 | -95.56132 | 32801 ft | 499 kts | 43° |
| 2026-04-26 01:44 | 36.64484 | -95.49512 | 32801 ft | 497 kts | 44° |
| 2026-04-26 01:44 | 36.68911 | -95.42910 | 32803 ft | 496 kts | 44° |
| 2026-04-26 01:45 | 36.73326 | -95.36310 | 32804 ft | 495 kts | 44° |
| 2026-04-26 01:45 | 36.77733 | -95.29707 | 32809 ft | 495 kts | 44° |
| 2026-04-26 01:46 | 36.82145 | -95.23084 | 32824 ft | 498 kts | 45° |
| 2026-04-26 01:46 | 36.86568 | -95.16432 | 32829 ft | 498 kts | 45° |
| 2026-04-26 01:47 | 36.90990 | -95.09766 | 32837 ft | 498 kts | 45° |
| 2026-04-26 01:47 | 36.95409 | -95.03094 | 32837 ft | 498 kts | 45° |
| 2026-04-26 01:48 | 36.99827 | -94.96412 | 32844 ft | 498 kts | 45° |
| 2026-04-26 01:48 | 37.04240 | -94.89721 | 32840 ft | 499 kts | 45° |
| 2026-04-26 01:49 | 37.08656 | -94.83016 | 32837 ft | 499 kts | 45° |
| 2026-04-26 01:49 | 37.13068 | -94.76301 | 32802 ft | 499 kts | 44° |
| 2026-04-26 01:50 | 37.17453 | -94.69620 | 32788 ft | 499 kts | 44° |
| 2026-04-26 01:50 | 37.21861 | -94.62881 | 32786 ft | 500 kts | 44° |
| 2026-04-26 01:51 | 37.26270 | -94.56130 | 32784 ft | 500 kts | 44° |
| 2026-04-26 01:51 | 37.30674 | -94.49373 | 32795 ft | 500 kts | 44° |
| 2026-04-26 01:52 | 37.35078 | -94.42597 | 32809 ft | 500 kts | 44° |
| 2026-04-26 01:52 | 37.39477 | -94.35819 | 32822 ft | 500 kts | 44° |
| 2026-04-26 01:53 | 37.43873 | -94.29028 | 32835 ft | 500 kts | 45° |
| 2026-04-26 01:53 | 37.48259 | -94.22239 | 32840 ft | 500 kts | 45° |
| 2026-04-26 01:54 | 37.52641 | -94.15445 | 32834 ft | 499 kts | 45° |
| 2026-04-26 01:54 | 37.57015 | -94.08650 | 32834 ft | 499 kts | 45° |
| 2026-04-26 01:55 | 37.61383 | -94.01848 | 32837 ft | 499 kts | 45° |
| 2026-04-26 01:55 | 37.65718 | -93.95083 | 32843 ft | 499 kts | 45° |
| 2026-04-26 01:56 | 37.70080 | -93.88265 | 32841 ft | 499 kts | 46° |
| 2026-04-26 01:56 | 37.74439 | -93.81434 | 32838 ft | 499 kts | 46° |
| 2026-04-26 01:57 | 37.78796 | -93.74595 | 32843 ft | 500 kts | 46° |
| 2026-04-26 01:57 | 37.83152 | -93.67740 | 32839 ft | 500 kts | 46° |
| 2026-04-26 01:58 | 37.87508 | -93.60875 | 32838 ft | 502 kts | 46° |
| 2026-04-26 01:58 | 37.91911 | -93.53921 | 32843 ft | 507 kts | 46° |
| 2026-04-26 01:59 | 37.96314 | -93.46946 | 32842 ft | 506 kts | 46° |
| 2026-04-26 01:59 | 38.00702 | -93.39990 | 32840 ft | 505 kts | 46° |
| 2026-04-26 02:00 | 38.05085 | -93.33034 | 32851 ft | 504 kts | 46° |
| 2026-04-26 02:00 | 38.09456 | -93.26090 | 32857 ft | 503 kts | 46° |
| 2026-04-26 02:01 | 38.13814 | -93.19156 | 32867 ft | 502 kts | 46° |
| 2026-04-26 02:01 | 38.18163 | -93.12233 | 32875 ft | 501 kts | 46° |
| 2026-04-26 02:02 | 38.22504 | -93.05311 | 32875 ft | 500 kts | 46° |
| 2026-04-26 02:02 | 38.26831 | -92.98406 | 32868 ft | 499 kts | 46° |
| 2026-04-26 02:03 | 38.31153 | -92.91503 | 32872 ft | 498 kts | 46° |
| 2026-04-26 02:03 | 38.35457 | -92.84617 | 32878 ft | 497 kts | 46° |
| 2026-04-26 02:04 | 38.39756 | -92.77736 | 32885 ft | 496 kts | 46° |
| 2026-04-26 02:04 | 38.44050 | -92.70858 | 32876 ft | 495 kts | 46° |
| 2026-04-26 02:05 | 38.48334 | -92.63990 | 32883 ft | 494 kts | 45° |
| 2026-04-26 02:05 | 38.50739 | -92.60936 | 32882 ft | 482 kts | 32° |
| 2026-04-26 02:05 | 38.53241 | -92.58054 | 32883 ft | 491 kts | 45° |
| 2026-04-26 02:06 | 38.57029 | -92.50699 | 32911 ft | 498 kts | 54° |
| 2026-04-26 02:06 | 38.60545 | -92.43064 | 32913 ft | 498 kts | 55° |
| 2026-04-26 02:07 | 38.64015 | -92.35393 | 32918 ft | 499 kts | 55° |
| 2026-04-26 02:07 | 38.67598 | -92.27821 | 32919 ft | 494 kts | 50° |
| 2026-04-26 02:07 | 38.69738 | -92.24414 | 32913 ft | 486 kts | 39° |
| 2026-04-26 02:08 | 38.72359 | -92.21817 | 32924 ft | 471 kts | 22° |
| 2026-04-26 02:08 | 38.75338 | -92.20279 | 32937 ft | 455 kts | 6° |
| 2026-04-26 02:08 | 38.78428 | -92.19891 | 32946 ft | 440 kts | 350° |
| 2026-04-26 02:08 | 38.81359 | -92.20666 | 32961 ft | 426 kts | 333° |
| 2026-04-26 02:09 | 38.83898 | -92.22492 | 32975 ft | 416 kts | 320° |
| 2026-04-26 02:09 | 38.86386 | -92.24324 | 32939 ft | 425 kts | 335° |
| 2026-04-26 02:09 | 38.89323 | -92.25047 | 32941 ft | 439 kts | 353° |
| 2026-04-26 02:09 | 38.92389 | -92.24530 | 32948 ft | 454 kts | 10° |
| 2026-04-26 02:10 | 38.95390 | -92.23219 | 32951 ft | 454 kts | 10° |
| 2026-04-26 02:10 | 39.01480 | -92.21290 | 32932 ft | 459 kts | 17° |
| 2026-04-26 02:10 | 39.04246 | -92.19140 | 32938 ft | 474 kts | 34° |
| 2026-04-26 02:11 | 39.06527 | -92.16015 | 32950 ft | 484 kts | 47° |
| 2026-04-26 02:11 | 39.08373 | -92.12370 | 32950 ft | 491 kts | 58° |
| 2026-04-26 02:11 | 39.09871 | -92.08399 | 32950 ft | 493 kts | 61° |
| 2026-04-26 02:12 | 39.13003 | -92.00559 | 32937 ft | 492 kts | 57° |
| 2026-04-26 02:12 | 39.16195 | -91.92748 | 32936 ft | 494 kts | 59° |
| 2026-04-26 02:13 | 39.19289 | -91.84836 | 32934 ft | 495 kts | 59° |
| 2026-04-26 02:13 | 39.22387 | -91.76909 | 32927 ft | 495 kts | 59° |
| 2026-04-26 02:14 | 39.25484 | -91.68971 | 32924 ft | 495 kts | 59° |
| 2026-04-26 02:14 | 39.28575 | -91.61023 | 32926 ft | 496 kts | 59° |
| 2026-04-26 02:15 | 39.31662 | -91.53063 | 32923 ft | 496 kts | 60° |
| 2026-04-26 02:15 | 39.34745 | -91.45088 | 32920 ft | 496 kts | 60° |
| 2026-04-26 02:16 | 39.37822 | -91.37115 | 32929 ft | 496 kts | 60° |
| 2026-04-26 02:16 | 39.40890 | -91.29138 | 32908 ft | 496 kts | 60° |
| 2026-04-26 02:17 | 39.43954 | -91.21157 | 32894 ft | 495 kts | 60° |
| 2026-04-26 02:17 | 39.47008 | -91.13176 | 32873 ft | 495 kts | 60° |
| 2026-04-26 02:18 | 39.50055 | -91.05195 | 32862 ft | 494 kts | 60° |
| 2026-04-26 02:18 | 39.53092 | -90.97216 | 32856 ft | 493 kts | 60° |
| 2026-04-26 02:18 | 39.54634 | -90.93251 | 32960 ft | 492 kts | 57° |
| 2026-04-26 02:19 | 39.56464 | -90.89537 | 32971 ft | 488 kts | 51° |
| 2026-04-26 02:19 | 39.60626 | -90.82702 | 32980 ft | 485 kts | 46° |
| 2026-04-26 02:20 | 39.64966 | -90.76017 | 32977 ft | 485 kts | 47° |
| 2026-04-26 02:20 | 39.69211 | -90.69216 | 32976 ft | 485 kts | 47° |
| 2026-04-26 02:21 | 39.73449 | -90.62403 | 32972 ft | 485 kts | 47° |
| 2026-04-26 02:21 | 39.77681 | -90.55587 | 32968 ft | 484 kts | 47° |
| 2026-04-26 02:22 | 39.81907 | -90.48766 | 32979 ft | 484 kts | 47° |
| 2026-04-26 02:22 | 39.86131 | -90.41935 | 32983 ft | 484 kts | 47° |
| 2026-04-26 02:23 | 39.90348 | -90.35092 | 32983 ft | 484 kts | 47° |
| 2026-04-26 02:23 | 39.94562 | -90.28253 | 32987 ft | 484 kts | 47° |
| 2026-04-26 02:24 | 39.99247 | -90.22049 | 32982 ft | 478 kts | 38° |
| 2026-04-26 02:24 | 40.04324 | -90.16473 | 32986 ft | 477 kts | 36° |
| 2026-04-26 02:25 | 40.09387 | -90.10889 | 32977 ft | 477 kts | 37° |
| 2026-04-26 02:25 | 40.14412 | -90.05232 | 32977 ft | 477 kts | 37° |
| 2026-04-26 02:26 | 40.19435 | -89.99576 | 32985 ft | 476 kts | 37° |
| 2026-04-26 02:26 | 40.24447 | -89.93908 | 32989 ft | 476 kts | 37° |
| 2026-04-26 02:27 | 40.29423 | -89.88270 | 32988 ft | 476 kts | 37° |
| 2026-04-26 02:27 | 40.34428 | -89.82593 | 32997 ft | 476 kts | 37° |
| 2026-04-26 02:28 | 40.39413 | -89.76882 | 33005 ft | 476 kts | 37° |
| 2026-04-26 02:28 | 40.44411 | -89.71195 | 33016 ft | 475 kts | 37° |
| 2026-04-26 02:28 | 40.46905 | -89.68346 | 32912 ft | 478 kts | 37° |
| 2026-04-26 02:29 | 40.49432 | -89.65457 | 32651 ft | 483 kts | 38° |
| 2026-04-26 02:29 | 40.51958 | -89.62569 | 32351 ft | 483 kts | 38° |
| 2026-04-26 02:29 | 40.54497 | -89.59659 | 31963 ft | 484 kts | 38° |
| 2026-04-26 02:29 | 40.57034 | -89.56742 | 31591 ft | 485 kts | 38° |
| 2026-04-26 02:30 | 40.59581 | -89.53823 | 31222 ft | 486 kts | 38° |
| 2026-04-26 02:30 | 40.62135 | -89.50886 | 30851 ft | 487 kts | 38° |
| 2026-04-26 02:30 | 40.64694 | -89.47946 | 30488 ft | 488 kts | 38° |
| 2026-04-26 02:30 | 40.67235 | -89.45026 | 30133 ft | 482 kts | 38° |
| 2026-04-26 02:31 | 40.69750 | -89.42128 | 29602 ft | 476 kts | 38° |
| 2026-04-26 02:31 | 40.71383 | -89.40245 | 29229 ft | 470 kts | 38° |
| 2026-04-26 02:31 | 40.73821 | -89.37427 | 28674 ft | 462 kts | 39° |
| 2026-04-26 02:31 | 40.76184 | -89.34608 | 28125 ft | 455 kts | 40° |
| 2026-04-26 02:32 | 40.78514 | -89.31819 | 27596 ft | 449 kts | 40° |
| 2026-04-26 02:32 | 40.80823 | -89.29074 | 27067 ft | 444 kts | 40° |
| 2026-04-26 02:32 | 40.83104 | -89.26354 | 26557 ft | 440 kts | 40° |
| 2026-04-26 02:32 | 40.85366 | -89.23653 | 26054 ft | 436 kts | 40° |
| 2026-04-26 02:33 | 40.87601 | -89.20984 | 25564 ft | 432 kts | 40° |
| 2026-04-26 02:33 | 40.89824 | -89.18325 | 25079 ft | 427 kts | 40° |
| 2026-04-26 02:33 | 40.91991 | -89.15731 | 24603 ft | 415 kts | 40° |
| 2026-04-26 02:33 | 40.94109 | -89.13191 | 24133 ft | 406 kts | 40° |
| 2026-04-26 02:34 | 40.96180 | -89.10705 | 23661 ft | 398 kts | 40° |
| 2026-04-26 02:34 | 40.98208 | -89.08270 | 23115 ft | 391 kts | 40° |
| 2026-04-26 02:34 | 41.00207 | -89.05867 | 22562 ft | 385 kts | 40° |
| 2026-04-26 02:34 | 41.02175 | -89.03498 | 22032 ft | 380 kts | 41° |
| 2026-04-26 02:35 | 41.04121 | -89.01161 | 21509 ft | 376 kts | 41° |
| 2026-04-26 02:35 | 41.06049 | -88.98841 | 20998 ft | 372 kts | 41° |
| 2026-04-26 02:35 | 41.07957 | -88.96540 | 20493 ft | 369 kts | 41° |
| 2026-04-26 02:35 | 41.09848 | -88.94257 | 19996 ft | 367 kts | 42° |
| 2026-04-26 02:36 | 41.11730 | -88.91986 | 19519 ft | 365 kts | 42° |
| 2026-04-26 02:36 | 41.13596 | -88.89725 | 19036 ft | 363 kts | 43° |
| 2026-04-26 02:36 | 41.15458 | -88.87477 | 18567 ft | 361 kts | 43° |
| 2026-04-26 02:36 | 41.17308 | -88.85243 | 18065 ft | 359 kts | 43° |
| 2026-04-26 02:37 | 41.19148 | -88.83014 | 17545 ft | 357 kts | 43° |
| 2026-04-26 02:37 | 41.20983 | -88.80794 | 17022 ft | 356 kts | 43° |
| 2026-04-26 02:37 | 41.22800 | -88.78583 | 16509 ft | 354 kts | 43° |
| 2026-04-26 02:37 | 41.24611 | -88.76375 | 16007 ft | 352 kts | 43° |
| 2026-04-26 02:38 | 41.26415 | -88.74187 | 15508 ft | 350 kts | 43° |
| 2026-04-26 02:38 | 41.28207 | -88.72008 | 15023 ft | 348 kts | 44° |
| 2026-04-26 02:38 | 41.29991 | -88.69834 | 14541 ft | 346 kts | 44° |
| 2026-04-26 02:38 | 41.31765 | -88.67680 | 14067 ft | 345 kts | 44° |
| 2026-04-26 02:39 | 41.33524 | -88.65527 | 13572 ft | 343 kts | 44° |
| 2026-04-26 02:39 | 41.35273 | -88.63391 | 13060 ft | 341 kts | 44° |
| 2026-04-26 02:39 | 41.37019 | -88.61271 | 12547 ft | 338 kts | 44° |
| 2026-04-26 02:39 | 41.38730 | -88.59197 | 12051 ft | 336 kts | 44° |
| 2026-04-26 02:40 | 41.40449 | -88.57117 | 11568 ft | 332 kts | 44° |
| 2026-04-26 02:40 | 41.42141 | -88.55074 | 11290 ft | 323 kts | 43° |
| 2026-04-26 02:40 | 41.43807 | -88.53095 | 11122 ft | 326 kts | 43° |
| 2026-04-26 02:40 | 41.45540 | -88.51033 | 11052 ft | 341 kts | 43° |
| 2026-04-26 02:41 | 41.47345 | -88.48887 | 11029 ft | 353 kts | 43° |
| 2026-04-26 02:41 | 41.49176 | -88.46716 | 11008 ft | 343 kts | 43° |
| 2026-04-26 02:41 | 41.50909 | -88.44670 | 10994 ft | 323 kts | 43° |
| 2026-04-26 02:41 | 41.52552 | -88.42733 | 10980 ft | 307 kts | 43° |
| 2026-04-26 02:42 | 41.54110 | -88.40896 | 10967 ft | 292 kts | 43° |
| 2026-04-26 02:42 | 41.55601 | -88.39140 | 10959 ft | 282 kts | 43° |
| 2026-04-26 02:42 | 41.57067 | -88.37386 | 10736 ft | 285 kts | 44° |
| 2026-04-26 02:42 | 41.58546 | -88.35601 | 10466 ft | 287 kts | 43° |
| 2026-04-26 02:43 | 41.61516 | -88.32112 | 9929 ft | 281 kts | 34° |
| 2026-04-26 02:43 | 41.63277 | -88.31010 | 9646 ft | 279 kts | 22° |
| 2026-04-26 02:43 | 41.65115 | -88.30187 | 9306 ft | 276 kts | 18° |
| 2026-04-26 02:44 | 41.66942 | -88.29477 | 8971 ft | 271 kts | 18° |
| 2026-04-26 02:44 | 41.68741 | -88.28789 | 8637 ft | 267 kts | 19° |
| 2026-04-26 02:44 | 41.70494 | -88.28035 | 8289 ft | 262 kts | 21° |
| 2026-04-26 02:44 | 41.72200 | -88.27242 | 7960 ft | 258 kts | 21° |
| 2026-04-26 02:45 | 41.73886 | -88.26463 | 7632 ft | 254 kts | 21° |
| 2026-04-26 02:45 | 41.75548 | -88.25710 | 7322 ft | 251 kts | 21° |
| 2026-04-26 02:45 | 41.77188 | -88.24966 | 6996 ft | 247 kts | 21° |
| 2026-04-26 02:45 | 41.78806 | -88.24232 | 6680 ft | 244 kts | 21° |
| 2026-04-26 02:46 | 41.80396 | -88.23511 | 6357 ft | 239 kts | 21° |
| 2026-04-26 02:46 | 41.81956 | -88.22800 | 6016 ft | 236 kts | 21° |
| 2026-04-26 02:46 | 41.83504 | -88.22095 | 5696 ft | 234 kts | 22° |
| 2026-04-26 02:46 | 41.85038 | -88.21398 | 5372 ft | 232 kts | 22° |
| 2026-04-26 02:47 | 41.86562 | -88.20704 | 5048 ft | 230 kts | 22° |
| 2026-04-26 02:47 | 41.88072 | -88.20018 | 4705 ft | 228 kts | 22° |
| 2026-04-26 02:47 | 41.89504 | -88.19368 | 4529 ft | 210 kts | 22° |
| 2026-04-26 02:47 | 41.90852 | -88.18755 | 4253 ft | 199 kts | 23° |
| 2026-04-26 02:48 | 41.92097 | -88.18187 | 4235 ft | 185 kts | 23° |
| 2026-04-26 02:48 | 41.93350 | -88.17611 | 4174 ft | 197 kts | 23° |
| 2026-04-26 02:48 | 41.94677 | -88.17008 | 4049 ft | 203 kts | 23° |
| 2026-04-26 02:48 | 41.95867 | -88.16047 | 3891 ft | 202 kts | 54° |
| 2026-04-26 02:49 | 41.96371 | -88.14376 | 3787 ft | 193 kts | 76° |
| 2026-04-26 02:49 | 41.96564 | -88.12666 | 3678 ft | 177 kts | 85° |
| 2026-04-26 02:49 | 41.96601 | -88.11136 | 3602 ft | 146 kts | 89° |
| 2026-04-26 02:49 | 41.96583 | -88.09907 | 3387 ft | 119 kts | 90° |
| 2026-04-26 02:50 | 41.96557 | -88.08873 | 3061 ft | 112 kts | 91° |
| 2026-04-26 02:50 | 41.96533 | -88.07703 | 2869 ft | 136 kts | 90° |
| 2026-04-26 02:50 | 41.96526 | -88.06373 | 2750 ft | 147 kts | 89° |
| 2026-04-26 02:50 | 41.96524 | -88.04956 | 2591 ft | 156 kts | 89° |
| 2026-04-26 02:51 | 41.96522 | -88.03565 | 2427 ft | 137 kts | 89° |
| 2026-04-26 02:51 | 41.96514 | -88.02286 | 2229 ft | 134 kts | 88° |
| 2026-04-26 02:51 | 41.96487 | -88.01036 | 1982 ft | 136 kts | 87° |
| 2026-04-26 02:51 | 41.96486 | -87.99747 | 1757 ft | 138 kts | 85° |
| 2026-04-26 02:52 | 41.96503 | -87.98448 | 1576 ft | 139 kts | 86° |
| 2026-04-26 02:52 | 41.96522 | -87.97168 | 1344 ft | 137 kts | 86° |
| 2026-04-26 02:52 | 41.96545 | -87.95851 | 1171 ft | 142 kts | 86° |
| 2026-04-26 02:52 | 41.96563 | -87.94545 | 987 ft | 134 kts | 85° |
| 2026-04-26 02:53 | 41.96568 | -87.93276 | 769 ft | 143 kts | 86° |
| 2026-04-26 02:53 | 41.96567 | -87.92005 | 669 ft | 121 kts | 85° |
| 2026-04-26 02:53 | 41.96581 | -87.91080 | 668 ft | 76 kts | 89° |
| 2026-04-26 02:53 | 41.96583 | -87.90633 | 668 ft | 24 kts | 80° |
| 2026-04-26 02:54 | 41.96631 | -87.90479 | 667 ft | 12 kts | 64° |
| 2026-04-26 02:54 | 41.96667 | -87.90380 | 667 ft | 11 kts | 64° |
| 2026-04-26 02:54 | 41.96703 | -87.90280 | 667 ft | 12 kts | 64° |
| 2026-04-26 02:54 | 41.96736 | -87.90173 | 667 ft | 13 kts | 79° |
| 2026-04-26 02:55 | 41.96740 | -87.90050 | 667 ft | 14 kts | 91° |
| 2026-04-26 02:55 | 41.96740 | -87.89921 | 667 ft | 14 kts | 90° |
| 2026-04-26 02:55 | 41.96740 | -87.89787 | 668 ft | 15 kts | 90° |
| 2026-04-26 02:55 | 41.96741 | -87.89645 | 667 ft | 16 kts | 89° |
| 2026-04-26 02:56 | 41.96740 | -87.89532 | 667 ft | 11 kts | 91° |
| 2026-04-26 02:56 | 41.96759 | -87.89438 | 667 ft | 4 kts | 39° |
| 2026-04-26 02:56 | 41.96789 | -87.89436 | 668 ft | 8 kts | 360° |
| 2026-04-26 02:56 | 41.96847 | -87.89435 | 668 ft | 9 kts | 1° |
| 2026-04-26 02:57 | 41.96911 | -87.89436 | 668 ft | 10 kts | 359° |
| 2026-04-26 02:57 | 41.96985 | -87.89437 | 668 ft | 12 kts | 359° |
| 2026-04-26 02:57 | 41.97068 | -87.89439 | 667 ft | 9 kts | 359° |
| 2026-04-26 02:57 | 41.97134 | -87.89440 | 667 ft | 10 kts | 359° |
| 2026-04-26 02:58 | 41.97203 | -87.89439 | 667 ft | 10 kts | 3° |
| 2026-04-26 02:58 | 41.97296 | -87.89431 | 667 ft | 19 kts | 3° |
| 2026-04-26 02:58 | 41.97415 | -87.89433 | 667 ft | 9 kts | 358° |
| 2026-04-26 02:58 | 41.97427 | -87.89434 | 667 ft | 3 kts | 358° |
| 2026-04-26 02:59 | 41.97450 | -87.89437 | 667 ft | 3 kts | 345° |
| 2026-04-26 02:59 | 41.97479 | -87.89479 | 667 ft | 9 kts | 295° |
| 2026-04-26 02:59 | 41.97505 | -87.89542 | 667 ft | 8 kts | 300° |
| 2026-04-26 02:59 | 41.97534 | -87.89614 | 667 ft | 10 kts | 297° |
| 2026-04-26 03:00 | 41.97563 | -87.89702 | 667 ft | 10 kts | 291° |
| 2026-04-26 03:00 | 41.97583 | -87.89769 | 667 ft | 6 kts | 291° |
| 2026-04-26 03:00 | 41.97588 | -87.89787 | 667 ft | 0 kts | 291° |
| 2026-04-26 03:01 | 41.97594 | -87.89805 | 667 ft | 11 kts | 291° |
| 2026-04-26 03:01 | 41.97618 | -87.89861 | 667 ft | 3 kts | 346° |
| 2026-04-26 03:01 | 41.97631 | -87.89853 | 667 ft | 5 kts | 41° |
| 2026-04-26 03:01 | 41.97653 | -87.89819 | 667 ft | 3 kts | 52° |
| 2026-04-26 03:02 | 41.97660 | -87.89807 | 667 ft | 0 kts | 52° |
| 2026-04-26 03:02 | 41.97660 | -87.89808 | 667 ft | 0 kts | 52° |